createdAt,value
2019-05-05T00:02:05.196Z,4.60
2019-05-05T00:04:56.687Z,4.20
2019-05-05T00:07:31.583Z,4.30
2019-05-05T00:10:01.187Z,3.98
2019-05-05T00:12:55.121Z,3.92
2019-05-05T00:15:48.592Z,4.45
2019-05-05T00:18:21.167Z,4.17
2019-05-05T00:20:50.979Z,4.60
2019-05-05T00:23:27.221Z,4.45
2019-05-05T00:25:56.760Z,4.80
2019-05-05T00:28:26.303Z,3.92
2019-05-05T00:30:55.835Z,4.00
2019-05-05T00:33:25.399Z,4.33
2019-05-05T00:35:54.951Z,4.62
2019-05-05T00:38:24.979Z,4.05
2019-05-05T00:40:55.101Z,4.55
2019-05-05T00:43:25.333Z,4.25
2019-05-05T00:45:59.080Z,4.28
2019-05-05T00:48:35.102Z,4.50
2019-05-05T00:51:04.789Z,4.00
2019-05-05T00:53:35.249Z,3.90
2019-05-05T00:56:05.215Z,4.30
2019-05-05T00:58:36.651Z,3.93
2019-05-05T01:01:18.407Z,5.00
2019-05-05T01:03:50.454Z,4.30
2019-05-05T01:06:22.105Z,4.53
2019-05-05T01:08:51.645Z,4.55
2019-05-05T01:11:21.368Z,4.47
2019-05-05T01:13:50.938Z,4.83
2019-05-05T01:16:20.585Z,4.70
2019-05-05T01:18:50.240Z,5.17
2019-05-05T01:21:21.942Z,4.05
2019-05-05T01:23:54.629Z,4.87
2019-05-05T01:26:25.011Z,4.33
2019-05-05T01:28:56.305Z,5.00
2019-05-05T01:31:27.093Z,4.95
2019-05-05T01:34:11.538Z,4.53
2019-05-05T01:36:41.206Z,5.08
2019-05-05T01:39:40.715Z,4.95
2019-05-05T01:42:14.679Z,4.78
2019-05-05T01:44:44.795Z,4.97
2019-05-05T01:47:15.699Z,5.10
2019-05-05T01:49:45.534Z,5.40
2019-05-05T01:54:44.853Z,5.12
2019-05-05T01:57:14.962Z,5.20
2019-05-05T01:59:44.929Z,4.87
2019-05-05T02:02:15.618Z,5.12
2019-05-05T02:04:45.545Z,4.92
2019-05-05T02:07:16.255Z,4.95
2019-05-05T02:09:45.760Z,5.42
2019-05-05T02:12:19.247Z,5.15
2019-05-05T02:14:48.855Z,5.22
2019-05-05T02:17:18.416Z,4.90
2019-05-05T02:20:02.878Z,5.47
2019-05-05T02:22:32.484Z,4.87
2019-05-05T02:25:04.352Z,5.58
2019-05-05T02:27:34.902Z,4.90
2019-05-05T02:30:46.617Z,4.85
2019-05-05T02:33:16.479Z,5.10
2019-05-05T02:35:47.004Z,5.03
2019-05-05T02:38:16.701Z,6.20
2019-05-05T02:40:46.375Z,5.85
2019-05-05T02:43:16.156Z,5.28
2019-05-05T02:45:55.189Z,5.28
2019-05-05T02:48:25.159Z,6.03
2019-05-05T02:51:01.287Z,5.20
2019-05-05T02:53:34.010Z,5.90
2019-05-05T02:56:05.501Z,6.00
2019-05-05T02:58:36.010Z,5.47
2019-05-05T03:01:23.927Z,5.78
2019-05-05T03:03:54.608Z,4.97
2019-05-05T03:06:24.229Z,5.53
2019-05-05T03:08:54.384Z,5.62
2019-05-05T03:11:24.850Z,5.25
2019-05-05T03:13:54.490Z,5.40
2019-05-05T03:16:25.801Z,4.65
2019-05-05T03:18:55.332Z,5.12
2019-05-05T03:21:24.935Z,5.08
2019-05-05T03:23:54.842Z,5.55
2019-05-05T03:26:24.579Z,5.93
2019-05-05T03:28:56.935Z,6.30
2019-05-05T03:31:26.776Z,7.10
2019-05-05T03:36:26.682Z,5.62
2019-05-05T03:38:57.635Z,5.47
2019-05-05T03:41:38.640Z,5.53
2019-05-05T03:46:48.145Z,4.42
2019-05-05T03:49:17.996Z,4.85
2019-05-05T03:51:47.571Z,5.22
2019-05-05T03:54:17.134Z,5.20
2019-05-05T03:56:46.737Z,4.87
2019-05-05T03:59:16.318Z,5.22
2019-05-05T04:01:54.725Z,5.28
2019-05-05T04:04:25.479Z,4.70
2019-05-05T04:06:55.165Z,5.45
2019-05-05T04:09:24.748Z,5.28
2019-05-05T04:11:54.322Z,5.60
2019-05-05T04:14:25.045Z,4.80
2019-05-05T04:19:45.549Z,4.97
2019-05-05T04:22:18.466Z,5.12
2019-05-05T04:24:48.007Z,5.25
2019-05-05T04:27:17.699Z,5.22
2019-05-05T04:29:47.459Z,5.33
2019-05-05T04:32:17.027Z,5.45
2019-05-05T04:34:46.548Z,5.45
2019-05-05T04:37:16.079Z,5.65
2019-05-05T04:39:45.719Z,5.35
2019-05-05T04:42:15.255Z,5.37
2019-05-05T04:44:45.077Z,5.55
2019-05-05T04:47:20.614Z,5.50
2019-05-05T04:49:56.775Z,5.70
2019-05-05T04:52:26.575Z,5.40
2019-05-05T04:54:56.177Z,5.62
2019-05-05T04:57:25.659Z,5.53
2019-05-05T04:59:55.215Z,5.50
2019-05-05T05:02:35.159Z,6.22
2019-05-05T05:05:09.735Z,6.62
2019-05-05T05:07:39.303Z,6.05
2019-05-05T05:10:08.875Z,5.67
2019-05-05T05:12:38.439Z,5.72
2019-05-05T05:15:08.104Z,5.95
2019-05-05T05:17:44.360Z,6.20
2019-05-05T05:20:14.232Z,5.65
2019-05-05T05:22:44.084Z,6.58
2019-05-05T05:25:13.765Z,5.95
2019-05-05T05:27:45.368Z,6.72
2019-05-05T05:30:19.687Z,6.83
2019-05-05T05:32:49.420Z,6.83
2019-05-05T05:35:19.950Z,7.45
2019-05-05T05:37:49.489Z,7.22
2019-05-05T05:40:24.994Z,8.13
2019-05-05T05:42:58.609Z,8.03
2019-05-05T05:45:54.246Z,8.53
2019-05-05T05:48:53.940Z,9.68
2019-05-05T05:54:19.067Z,8.95
2019-05-05T05:56:48.846Z,9.30
2019-05-05T05:59:19.133Z,9.43
2019-05-05T06:01:48.775Z,9.53
2019-05-05T06:04:37.087Z,9.15
2019-05-05T06:07:21.686Z,9.18
2019-05-05T06:10:03.747Z,9.28
2019-05-05T06:12:54.839Z,8.93
2019-05-05T06:15:28.094Z,9.88
2019-05-05T06:17:57.697Z,8.35
2019-05-05T06:20:30.439Z,9.10
2019-05-05T06:23:00.278Z,9.05
2019-05-05T06:25:29.894Z,8.83
2019-05-05T06:27:59.715Z,8.48
2019-05-05T06:30:29.659Z,9.00
2019-05-05T06:32:59.302Z,9.30
2019-05-05T06:35:29.028Z,9.40
2019-05-05T06:37:58.604Z,9.23
2019-05-05T06:40:54.920Z,9.10
2019-05-05T06:44:03.687Z,8.70
2019-05-05T06:46:53.817Z,9.23
2019-05-05T06:49:23.844Z,8.80
2019-05-05T06:51:54.856Z,8.18
2019-05-05T06:54:24.574Z,8.07
2019-05-05T06:56:54.284Z,8.60
2019-05-05T06:59:24.498Z,8.65
2019-05-05T07:01:54.206Z,7.90
2019-05-05T07:04:24.535Z,7.67
2019-05-05T07:06:57.074Z,7.72
2019-05-05T07:09:25.720Z,7.67
2019-05-05T07:11:55.316Z,8.00
2019-05-05T07:14:24.983Z,7.22
2019-05-05T07:16:54.546Z,7.85
2019-05-05T07:19:24.206Z,7.40
2019-05-05T07:21:54.028Z,7.25
2019-05-05T07:24:24.047Z,6.70
2019-05-05T07:26:55.767Z,7.23
2019-05-05T07:29:25.351Z,6.83
2019-05-05T07:31:55.015Z,6.30
2019-05-05T07:34:45.640Z,7.60
2019-05-05T07:37:15.705Z,7.00
2019-05-05T07:39:45.451Z,6.62
2019-05-05T07:42:15.093Z,6.28
2019-05-05T07:44:44.723Z,6.92
2019-05-05T07:47:14.628Z,6.90
2019-05-05T07:49:44.315Z,7.10
2019-05-05T07:52:15.099Z,7.75
2019-05-05T07:57:14.635Z,7.47
2019-05-05T07:59:45.341Z,7.53
2019-05-05T08:02:14.904Z,7.20
2019-05-05T08:04:44.567Z,7.35
2019-05-05T08:07:14.819Z,13.45
2019-05-05T08:09:44.663Z,8.00
2019-05-05T08:12:17.363Z,7.65
2019-05-05T08:14:47.032Z,7.42
2019-05-05T08:17:25.740Z,7.45
2019-05-05T08:20:14.299Z,6.75
2019-05-05T08:22:49.455Z,6.22
2019-05-05T08:25:40.550Z,6.50
2019-05-05T08:28:23.685Z,7.00
2019-05-05T08:31:18.443Z,6.17
2019-05-05T08:33:48.764Z,6.33
2019-05-05T08:36:20.085Z,5.78
2019-05-05T08:38:50.275Z,5.87
2019-05-05T08:41:24.627Z,6.58
2019-05-05T08:43:54.378Z,6.37
2019-05-05T08:46:24.782Z,6.25
2019-05-05T08:48:54.333Z,6.67
2019-05-05T08:51:24.659Z,6.62
2019-05-05T08:53:55.757Z,6.20
2019-05-05T08:56:25.781Z,6.12
2019-05-05T08:58:55.327Z,6.13
2019-05-05T09:01:24.875Z,6.70
2019-05-05T09:03:54.527Z,6.55
2019-05-05T09:06:24.239Z,6.62
2019-05-05T09:08:55.803Z,6.12
2019-05-05T09:11:25.355Z,6.53
2019-05-05T09:13:54.895Z,6.70
2019-05-05T09:16:24.515Z,8.03
2019-05-05T09:19:00.000Z,9.10
2019-05-05T09:21:29.612Z,8.03
2019-05-05T09:24:16.271Z,7.58
2019-05-05T09:26:58.085Z,6.67
2019-05-05T09:29:34.829Z,6.62
2019-05-05T09:32:04.520Z,6.53
2019-05-05T09:34:34.192Z,6.25
2019-05-05T09:37:04.924Z,6.50
2019-05-05T09:39:34.659Z,7.10
2019-05-05T09:42:04.318Z,6.20
2019-05-05T09:44:35.000Z,6.40
2019-05-05T09:47:06.651Z,6.22
2019-05-05T09:49:36.235Z,6.72
2019-05-05T09:52:05.871Z,7.03
2019-05-05T09:54:36.275Z,6.97
2019-05-05T09:57:07.740Z,9.80
2019-05-05T09:59:40.210Z,8.35
2019-05-05T10:02:09.507Z,7.47
2019-05-05T10:04:39.187Z,6.92
2019-05-05T10:07:08.763Z,7.35
2019-05-05T10:09:38.374Z,6.75
2019-05-05T10:12:08.008Z,6.85
2019-05-05T10:14:37.566Z,6.92
2019-05-05T10:17:07.128Z,7.22
2019-05-05T10:19:36.740Z,7.00
2019-05-05T10:22:06.301Z,6.55
2019-05-05T10:24:41.504Z,7.03
2019-05-05T10:27:11.608Z,7.35
2019-05-05T10:29:41.234Z,6.90
2019-05-05T10:32:10.908Z,6.90
2019-05-05T10:34:45.275Z,6.40
2019-05-05T10:37:14.843Z,6.37
2019-05-05T10:39:49.553Z,6.37
2019-05-05T10:42:20.907Z,6.67
2019-05-05T10:44:50.932Z,6.35
2019-05-05T10:47:21.147Z,6.40
2019-05-05T10:49:51.360Z,5.92
2019-05-05T10:52:20.984Z,6.00
2019-05-05T10:54:50.700Z,6.55
2019-05-05T10:57:20.248Z,6.53
2019-05-05T10:59:49.794Z,5.70
2019-05-05T11:02:21.630Z,6.35
2019-05-05T11:04:51.331Z,6.95
2019-05-05T11:07:20.956Z,5.25
2019-05-05T11:09:51.261Z,5.75
2019-05-05T11:12:21.698Z,6.20
2019-05-05T11:14:51.396Z,7.95
2019-05-05T11:17:20.943Z,5.33
2019-05-05T11:19:51.135Z,5.20
2019-05-05T11:22:21.132Z,5.20
2019-05-05T11:24:58.238Z,5.28
2019-05-05T11:27:23.997Z,5.30
2019-05-05T11:30:30.636Z,6.25
2019-05-05T11:33:18.207Z,7.47
2019-05-05T11:36:13.606Z,7.95
2019-05-05T11:38:44.640Z,8.28
2019-05-05T11:41:14.614Z,7.30
2019-05-05T11:43:44.359Z,6.95
2019-05-05T11:46:14.254Z,7.22
2019-05-05T11:48:44.107Z,6.50
2019-05-05T11:51:15.056Z,5.80
2019-05-05T11:53:44.955Z,5.72
2019-05-05T11:56:14.669Z,5.30
2019-05-05T11:58:44.485Z,4.75
2019-05-05T12:01:14.459Z,4.50
2019-05-05T12:03:46.116Z,4.60
2019-05-05T12:06:15.974Z,4.37
2019-05-05T12:08:46.026Z,4.40
2019-05-05T12:11:16.030Z,4.20
2019-05-05T12:13:47.247Z,4.00
2019-05-05T12:16:30.146Z,4.17
2019-05-05T12:19:00.465Z,4.83
2019-05-05T12:21:30.094Z,4.90
2019-05-05T12:24:03.819Z,5.37
2019-05-05T12:26:50.999Z,5.17
2019-05-05T12:29:24.656Z,4.72
2019-05-05T12:31:54.703Z,5.12
2019-05-05T12:34:24.427Z,4.77
2019-05-05T12:36:54.180Z,4.70
2019-05-05T12:39:24.783Z,4.78
2019-05-05T12:41:54.481Z,4.78
2019-05-05T12:44:29.010Z,4.67
2019-05-05T12:47:16.356Z,11.38
2019-05-05T12:49:46.064Z,6.42
2019-05-05T12:52:15.873Z,4.60
2019-05-05T12:54:45.813Z,4.70
2019-05-05T12:57:15.492Z,3.90
2019-05-05T12:59:47.186Z,4.25
2019-05-05T13:02:17.050Z,4.95
2019-05-05T13:04:46.590Z,4.10
2019-05-05T13:07:16.212Z,4.20
2019-05-05T13:09:45.917Z,4.03
2019-05-05T13:12:15.881Z,3.98
2019-05-05T13:14:46.005Z,4.30
2019-05-05T13:17:16.151Z,3.80
2019-05-05T13:19:52.945Z,4.05
2019-05-05T13:22:39.908Z,4.00
2019-05-05T13:25:27.258Z,3.72
2019-05-05T13:27:57.394Z,3.77
2019-05-05T13:30:28.087Z,3.95
2019-05-05T13:32:57.664Z,4.12
2019-05-05T13:35:27.215Z,4.08
2019-05-05T13:37:56.775Z,3.87
2019-05-05T13:40:26.553Z,3.87
2019-05-05T13:42:56.239Z,4.80
2019-05-05T13:45:47.977Z,4.87
2019-05-05T13:48:17.664Z,4.20
2019-05-05T13:50:49.599Z,4.75
2019-05-05T13:53:19.299Z,4.80
2019-05-05T13:55:48.845Z,4.25
2019-05-05T13:58:18.482Z,3.60
2019-05-05T14:00:48.186Z,3.67
2019-05-05T14:03:18.035Z,3.87
2019-05-05T14:05:48.158Z,3.27
2019-05-05T14:08:19.892Z,3.70
2019-05-05T14:10:49.609Z,3.80
2019-05-05T14:13:19.182Z,3.58
2019-05-05T14:15:48.930Z,3.37
2019-05-05T14:18:18.741Z,3.35
2019-05-05T14:20:50.423Z,3.58
2019-05-05T14:23:20.311Z,2.98
2019-05-05T14:25:51.074Z,3.58
2019-05-05T14:28:20.771Z,3.80
2019-05-05T14:31:14.134Z,6.30
2019-05-05T14:33:54.195Z,7.08
2019-05-05T14:37:24.835Z,6.17
2019-05-05T14:39:56.059Z,6.10
2019-05-05T14:42:31.815Z,6.75
2019-05-05T14:45:09.238Z,5.75
2019-05-05T14:51:05.427Z,4.28
2019-05-05T14:53:36.292Z,4.08
2019-05-05T14:56:08.893Z,3.95
2019-05-05T14:58:39.343Z,4.30
2019-05-05T15:01:09.081Z,4.35
2019-05-05T15:04:05.880Z,4.58
2019-05-05T15:06:40.811Z,6.58
2019-05-05T15:09:28.135Z,5.10
2019-05-05T15:12:20.155Z,4.08
2019-05-05T15:14:49.924Z,4.22
2019-05-05T15:17:19.685Z,4.33
2019-05-05T15:19:49.562Z,3.62
2019-05-05T15:22:19.633Z,3.70
2019-05-05T15:24:50.894Z,3.50
2019-05-05T15:27:26.130Z,4.12
2019-05-05T15:29:56.454Z,3.50
2019-05-05T15:32:26.648Z,3.35
2019-05-05T15:34:57.041Z,3.52
2019-05-05T15:37:27.055Z,3.42
2019-05-05T15:39:57.490Z,3.33
2019-05-05T15:42:28.344Z,3.77
2019-05-05T15:44:58.200Z,3.92
2019-05-05T15:47:28.728Z,4.30
2019-05-05T15:50:00.777Z,3.95
2019-05-05T15:52:34.719Z,6.80
2019-05-05T15:55:08.887Z,6.65
2019-05-05T15:57:51.819Z,5.30
2019-05-05T16:00:22.546Z,3.62
2019-05-05T16:02:54.734Z,3.40
2019-05-05T16:05:24.404Z,3.60
2019-05-05T16:08:05.943Z,3.50
2019-05-05T16:10:46.638Z,4.03
2019-05-05T16:13:19.790Z,3.80
2019-05-05T16:16:07.486Z,3.35
2019-05-05T16:19:05.571Z,3.55
2019-05-05T16:21:39.256Z,4.50
2019-05-05T16:24:14.693Z,4.40
2019-05-05T16:26:44.543Z,4.10
2019-05-05T16:29:29.851Z,3.83
2019-05-05T16:32:19.621Z,3.45
2019-05-05T16:34:41.973Z,3.17
2019-05-05T16:37:14.306Z,3.45
2019-05-05T16:40:31.163Z,3.47
2019-05-05T16:51:07.350Z,3.30
2019-05-05T16:57:51.009Z,3.02
2019-05-05T17:04:14.295Z,6.22
2019-05-05T17:06:48.593Z,6.95
2019-05-05T17:09:18.182Z,5.90
2019-05-05T17:12:06.947Z,4.08
2019-05-05T17:14:45.761Z,4.75
2019-05-05T17:17:34.093Z,6.50
2019-05-05T17:20:07.322Z,6.62
2019-05-05T17:22:48.511Z,4.62
2019-05-05T17:25:18.111Z,4.97
2019-05-05T17:27:50.927Z,7.37
2019-05-05T17:30:19.057Z,8.33
2019-05-05T17:32:48.699Z,6.30
2019-05-05T17:35:18.285Z,6.37
2019-05-05T17:37:47.981Z,5.87
2019-05-05T17:40:24.415Z,9.65
2019-05-05T17:43:25.158Z,5.40
2019-05-05T17:46:00.232Z,6.72
2019-05-05T17:48:36.507Z,6.15
2019-05-05T17:51:34.287Z,6.12
2019-05-05T17:54:25.948Z,4.00
2019-05-05T17:56:56.687Z,8.53
2019-05-05T17:59:26.290Z,7.20
2019-05-05T18:01:55.943Z,4.75
2019-05-05T18:04:25.600Z,3.52
2019-05-05T18:07:04.775Z,3.27
2019-05-05T18:09:53.950Z,4.40
2019-05-05T18:12:38.790Z,2.87
2019-05-05T18:15:10.589Z,2.58
2019-05-05T18:17:40.177Z,2.25
2019-05-05T18:20:09.815Z,2.70
2019-05-05T18:22:39.412Z,2.92
2019-05-05T18:25:09.172Z,3.67
2019-05-05T18:27:38.814Z,4.00
2019-05-05T18:30:08.467Z,5.62
2019-05-05T18:32:38.131Z,4.37
2019-05-05T18:35:07.745Z,3.92
2019-05-05T18:37:37.356Z,3.40
2019-05-05T18:40:08.058Z,3.85
2019-05-05T18:42:37.732Z,3.20
2019-05-05T18:45:10.482Z,2.55
2019-05-05T18:47:40.117Z,2.83
2019-05-05T18:50:09.805Z,5.45
2019-05-05T18:52:45.070Z,5.97
2019-05-05T18:55:15.031Z,6.10
2019-05-05T18:57:44.687Z,4.25
2019-05-05T19:00:15.884Z,4.42
2019-05-05T19:02:54.967Z,4.62
2019-05-05T19:05:53.537Z,5.83
2019-05-05T19:08:26.061Z,4.42
2019-05-05T19:10:55.659Z,2.85
2019-05-05T19:13:26.286Z,2.90
2019-05-05T19:15:56.025Z,6.47
2019-05-05T19:18:25.559Z,4.20
2019-05-05T19:21:00.726Z,5.80
2019-05-05T19:23:30.347Z,5.62
2019-05-05T19:26:00.930Z,4.95
2019-05-05T19:28:41.241Z,11.53
2019-05-05T19:31:04.205Z,11.43
2019-05-05T19:33:36.349Z,9.13
2019-05-05T19:36:07.187Z,6.58
2019-05-05T19:38:37.087Z,4.70
2019-05-05T19:41:09.313Z,3.92
2019-05-05T19:43:54.376Z,4.05
2019-05-05T19:46:54.805Z,3.60
2019-05-05T19:49:24.673Z,3.98
2019-05-05T19:51:56.381Z,3.90
2019-05-05T19:54:26.067Z,4.45
2019-05-05T19:56:55.792Z,4.25
2019-05-05T19:59:25.481Z,4.37
2019-05-05T20:01:56.274Z,3.37
2019-05-05T20:04:26.008Z,3.47
2019-05-05T20:06:55.635Z,3.67
2019-05-05T20:09:27.333Z,3.62
2019-05-05T20:11:57.151Z,3.65
2019-05-05T20:14:26.998Z,3.70
2019-05-05T20:17:04.619Z,3.87
2019-05-05T20:19:39.363Z,3.83
2019-05-05T20:22:09.415Z,3.55
2019-05-05T20:24:39.166Z,2.97
2019-05-05T20:27:10.876Z,3.10
2019-05-05T20:29:41.555Z,3.37
2019-05-05T20:32:11.251Z,3.27
2019-05-05T20:34:54.134Z,3.37
2019-05-05T20:37:29.916Z,3.62
2019-05-05T20:40:00.716Z,3.50
2019-05-05T20:42:33.626Z,3.90
2019-05-05T20:45:04.162Z,3.50
2019-05-05T20:47:37.614Z,3.65
2019-05-05T20:50:08.309Z,4.08
2019-05-05T20:52:38.928Z,5.67
2019-05-05T20:55:08.536Z,6.87
2019-05-05T20:57:38.219Z,7.17
2019-05-05T21:00:09.626Z,5.00
2019-05-05T21:02:43.447Z,4.40
2019-05-05T21:05:14.579Z,4.12
2019-05-05T21:07:47.048Z,3.98
2019-05-05T21:10:17.672Z,4.47
2019-05-05T21:12:50.940Z,4.50
2019-05-05T21:15:21.092Z,4.17
2019-05-05T21:17:51.129Z,4.45
2019-05-05T21:20:24.135Z,4.17
2019-05-05T21:23:06.691Z,4.12
2019-05-05T21:25:39.696Z,3.90
2019-05-05T21:28:09.255Z,3.83
2019-05-05T21:30:41.534Z,3.90
2019-05-05T21:33:10.242Z,4.00
2019-05-05T21:35:39.855Z,4.50
2019-05-05T21:38:09.452Z,4.83
2019-05-05T21:40:39.057Z,4.28
2019-05-05T21:43:08.766Z,4.22
2019-05-05T21:45:38.466Z,4.33
2019-05-05T21:48:09.095Z,4.60
2019-05-05T21:50:43.690Z,4.45
2019-05-05T21:53:40.447Z,4.50
2019-05-05T21:56:46.358Z,4.03
2019-05-05T21:59:15.905Z,4.17
2019-05-05T22:01:49.168Z,3.95
2019-05-05T22:04:16.863Z,4.10
2019-05-05T22:06:46.483Z,3.75
2019-05-05T22:09:16.147Z,4.45
2019-05-05T22:11:45.695Z,4.00
2019-05-05T22:14:15.282Z,4.30
2019-05-05T22:16:44.902Z,4.05
2019-05-05T22:19:16.403Z,3.45
2019-05-05T22:21:50.481Z,4.25
2019-05-05T22:24:21.016Z,3.95
2019-05-05T22:26:50.533Z,3.98
2019-05-05T22:29:20.154Z,3.87
2019-05-05T22:31:49.826Z,4.05
2019-05-05T22:34:19.393Z,3.80
2019-05-05T22:36:49.972Z,4.30
2019-05-05T22:39:19.668Z,4.37
2019-05-05T22:41:49.203Z,5.42
2019-05-05T22:44:18.733Z,4.90
2019-05-05T22:46:48.327Z,3.92
2019-05-05T22:49:17.919Z,3.95
2019-05-05T22:51:47.595Z,3.62
2019-05-05T22:54:17.196Z,4.22
2019-05-05T22:56:46.744Z,4.30
2019-05-05T22:59:16.342Z,4.08
2019-05-05T23:01:45.923Z,3.95
2019-05-05T23:04:43.832Z,4.00
2019-05-05T23:07:19.502Z,4.10
2019-05-05T23:09:49.191Z,4.17
2019-05-05T23:12:18.739Z,4.25
2019-05-05T23:14:49.331Z,4.03
2019-05-05T23:17:36.710Z,3.83
2019-05-05T23:20:13.508Z,4.00
2019-05-05T23:22:56.863Z,4.05
2019-05-05T23:25:31.491Z,4.03
2019-05-05T23:28:01.043Z,4.10
2019-05-05T23:30:39.553Z,3.47
2019-05-05T23:33:01.999Z,3.83
2019-05-05T23:35:31.673Z,3.75
2019-05-05T23:38:03.399Z,4.00
2019-05-05T23:40:33.974Z,3.75
2019-05-05T23:43:04.525Z,3.95
2019-05-05T23:45:34.259Z,4.25
2019-05-05T23:48:03.871Z,3.83
2019-05-05T23:50:33.786Z,3.62
2019-05-05T23:53:03.505Z,4.37
2019-05-05T23:55:34.405Z,4.80
2019-05-05T23:58:04.075Z,4.42
